createdAt,value
2023-06-30T00:01:51.504Z,5.85
2023-06-30T00:04:23.642Z,5.85
2023-06-30T00:06:53.033Z,5.55
2023-06-30T00:09:23.681Z,4.75
2023-06-30T00:11:54.535Z,5.10
2023-06-30T00:14:24.421Z,4.57
2023-06-30T00:16:53.740Z,4.25
2023-06-30T00:19:24.540Z,3.30
2023-06-30T00:21:54.278Z,3.65
2023-06-30T00:24:24.746Z,3.58
2023-06-30T00:26:54.034Z,2.80
2023-06-30T00:29:23.197Z,2.10
2023-06-30T00:31:53.894Z,2.42
2023-06-30T00:34:23.093Z,1.90
2023-06-30T00:36:52.190Z,1.67
2023-06-30T00:39:21.301Z,1.95
2023-06-30T00:41:51.745Z,1.55
2023-06-30T00:44:20.819Z,2.03
2023-06-30T00:46:50.032Z,1.80
2023-06-30T00:49:20.127Z,1.70
2023-06-30T00:51:50.346Z,1.58
2023-06-30T00:54:20.912Z,1.45
2023-06-30T00:56:53.055Z,1.63
2023-06-30T00:59:23.090Z,1.60
2023-06-30T01:02:00.143Z,1.40
2023-06-30T01:04:37.536Z,1.88
2023-06-30T01:07:16.456Z,1.63
2023-06-30T01:09:53.867Z,1.60
2023-06-30T01:12:25.806Z,1.15
2023-06-30T01:14:56.311Z,1.40
2023-06-30T01:17:26.917Z,1.70
2023-06-30T01:19:57.668Z,1.48
2023-06-30T01:22:31.127Z,1.60
2023-06-30T01:25:11.857Z,1.48
2023-06-30T01:27:43.838Z,1.45
2023-06-30T01:30:15.000Z,1.35
2023-06-30T01:32:46.742Z,1.88
2023-06-30T01:35:16.218Z,1.48
2023-06-30T01:37:45.335Z,1.80
2023-06-30T01:40:14.908Z,1.30
2023-06-30T01:42:46.420Z,1.55
2023-06-30T01:45:18.523Z,1.35
2023-06-30T01:47:48.072Z,2.33
2023-06-30T01:50:17.844Z,1.40
2023-06-30T01:52:47.008Z,1.65
2023-06-30T01:55:17.315Z,1.60
2023-06-30T01:57:48.015Z,1.88
2023-06-30T02:00:17.536Z,1.80
2023-06-30T02:02:49.245Z,1.40
2023-06-30T02:05:18.406Z,1.58
2023-06-30T02:07:47.889Z,1.50
2023-06-30T02:10:17.027Z,2.42
2023-06-30T02:12:48.188Z,1.85
2023-06-30T02:15:17.326Z,2.13
2023-06-30T02:17:46.475Z,1.67
2023-06-30T02:20:16.709Z,1.85
2023-06-30T02:22:45.958Z,1.92
2023-06-30T02:25:17.202Z,2.70
2023-06-30T02:27:48.466Z,1.90
2023-06-30T02:30:21.048Z,2.50
2023-06-30T02:32:50.147Z,2.20
2023-06-30T02:35:19.288Z,2.95
2023-06-30T02:37:48.426Z,2.10
2023-06-30T02:40:17.648Z,2.20
2023-06-30T02:42:48.358Z,2.58
2023-06-30T02:45:18.450Z,2.33
2023-06-30T02:47:47.541Z,2.60
2023-06-30T02:50:16.849Z,2.65
2023-06-30T02:52:45.982Z,2.38
2023-06-30T02:55:15.069Z,3.15
2023-06-30T02:57:44.885Z,2.92
2023-06-30T03:00:16.963Z,3.25
2023-06-30T03:02:46.414Z,3.28
2023-06-30T03:05:17.089Z,3.30
2023-06-30T03:07:46.230Z,2.70
2023-06-30T03:10:15.434Z,3.40
2023-06-30T03:12:44.540Z,2.78
2023-06-30T03:15:15.195Z,2.80
2023-06-30T03:17:44.508Z,2.92
2023-06-30T03:20:14.539Z,2.88
2023-06-30T03:22:44.270Z,2.90
2023-06-30T03:25:13.380Z,3.03
2023-06-30T03:27:42.479Z,2.90
2023-06-30T03:30:13.975Z,3.33
2023-06-30T03:32:47.043Z,3.03
2023-06-30T03:35:16.243Z,3.10
2023-06-30T03:37:45.342Z,2.80
2023-06-30T03:40:15.310Z,2.97
2023-06-30T03:42:44.500Z,2.72
2023-06-30T03:45:14.998Z,2.60
2023-06-30T03:47:44.292Z,2.88
2023-06-30T03:50:13.547Z,3.05
2023-06-30T03:52:42.662Z,2.95
2023-06-30T03:55:11.814Z,2.70
2023-06-30T03:57:40.920Z,2.53
2023-06-30T04:00:12.697Z,2.67
2023-06-30T04:02:43.300Z,2.60
2023-06-30T04:05:12.471Z,3.50
2023-06-30T04:07:41.754Z,2.25
2023-06-30T04:10:11.684Z,2.63
2023-06-30T04:12:40.876Z,2.58
2023-06-30T04:15:11.627Z,2.28
2023-06-30T04:17:42.104Z,2.30
2023-06-30T04:20:12.346Z,2.88
2023-06-30T04:22:41.502Z,1.95
2023-06-30T04:25:12.080Z,1.80
2023-06-30T04:27:41.205Z,1.63
2023-06-30T04:30:11.092Z,1.40
2023-06-30T04:32:40.482Z,1.00
2023-06-30T04:35:11.720Z,1.30
2023-06-30T04:37:42.272Z,1.50
2023-06-30T04:40:12.141Z,1.38
2023-06-30T04:42:41.314Z,1.17
2023-06-30T04:45:10.921Z,1.20
2023-06-30T04:47:40.103Z,1.13
2023-06-30T04:50:11.440Z,1.13
2023-06-30T04:52:40.527Z,0.95
2023-06-30T04:55:10.396Z,0.95
2023-06-30T04:57:39.455Z,1.15
2023-06-30T05:00:10.331Z,0.85
2023-06-30T05:02:39.858Z,1.27
2023-06-30T05:05:11.440Z,0.98
2023-06-30T05:07:41.692Z,0.77
2023-06-30T05:10:15.625Z,1.02
2023-06-30T05:12:46.104Z,1.40
2023-06-30T05:15:15.787Z,0.82
2023-06-30T05:17:44.907Z,0.70
2023-06-30T05:20:15.536Z,1.02
2023-06-30T05:22:44.646Z,0.95
2023-06-30T05:25:13.903Z,0.70
2023-06-30T05:27:43.039Z,0.75
2023-06-30T05:30:13.240Z,1.05
2023-06-30T05:32:42.372Z,0.70
2023-06-30T05:35:11.920Z,0.73
2023-06-30T05:37:42.399Z,0.82
2023-06-30T05:40:12.128Z,0.90
2023-06-30T05:42:41.193Z,0.98
2023-06-30T05:45:10.850Z,1.30
2023-06-30T05:47:39.995Z,0.95
2023-06-30T05:50:10.099Z,1.00
2023-06-30T05:52:39.294Z,0.90
2023-06-30T05:55:10.643Z,1.83
2023-06-30T05:57:39.772Z,1.10
2023-06-30T06:00:09.857Z,0.80
2023-06-30T06:02:41.553Z,1.10
2023-06-30T06:05:11.100Z,1.20
2023-06-30T06:07:41.439Z,1.13
2023-06-30T06:10:12.598Z,0.80
2023-06-30T06:12:42.094Z,0.80
2023-06-30T06:15:12.063Z,0.80
2023-06-30T06:17:41.290Z,1.00
2023-06-30T06:20:11.322Z,0.90
2023-06-30T06:22:40.498Z,0.90
2023-06-30T06:25:11.763Z,1.00
2023-06-30T06:27:40.892Z,1.10
2023-06-30T06:30:10.900Z,1.10
2023-06-30T06:32:40.303Z,0.93
2023-06-30T06:35:10.035Z,1.05
2023-06-30T06:37:39.318Z,1.17
2023-06-30T06:40:11.656Z,1.25
2023-06-30T06:42:40.780Z,0.80
2023-06-30T06:45:10.581Z,1.23
2023-06-30T06:48:18.776Z,1.20
2023-06-30T06:50:48.229Z,1.58
2023-06-30T06:53:21.339Z,1.50
2023-06-30T06:55:53.271Z,1.75
2023-06-30T06:58:23.178Z,1.95
2023-06-30T07:00:54.135Z,1.85
2023-06-30T07:03:23.577Z,1.90
2023-06-30T07:05:52.935Z,1.80
2023-06-30T07:08:22.440Z,1.48
2023-06-30T07:10:53.390Z,1.50
2023-06-30T07:13:23.533Z,1.35
2023-06-30T07:15:52.874Z,1.50
2023-06-30T07:18:22.723Z,1.30
2023-06-30T07:20:54.944Z,1.40
2023-06-30T07:23:26.922Z,1.50
2023-06-30T07:25:57.938Z,1.30
2023-06-30T07:28:27.003Z,1.10
2023-06-30T07:30:56.080Z,1.08
2023-06-30T07:33:25.245Z,1.23
2023-06-30T07:35:54.364Z,1.25
2023-06-30T07:38:23.477Z,1.05
2023-06-30T07:40:56.397Z,1.13
2023-06-30T07:43:27.472Z,0.90
2023-06-30T07:45:56.570Z,0.88
2023-06-30T07:48:25.816Z,0.93
2023-06-30T07:51:07.725Z,1.05
2023-06-30T07:53:40.429Z,1.13
2023-06-30T07:56:09.547Z,0.93
2023-06-30T07:58:40.092Z,1.02
2023-06-30T08:01:09.228Z,1.00
2023-06-30T08:03:38.496Z,0.82
2023-06-30T08:06:08.033Z,0.60
2023-06-30T08:08:37.318Z,0.93
2023-06-30T08:11:06.435Z,0.63
2023-06-30T08:13:35.596Z,0.70
2023-06-30T08:16:06.674Z,1.13
2023-06-30T08:18:35.960Z,0.70
2023-06-30T08:21:05.232Z,0.90
2023-06-30T08:23:34.555Z,0.70
2023-06-30T08:26:03.646Z,1.00
2023-06-30T08:28:33.003Z,0.40
2023-06-30T08:31:02.171Z,0.68
2023-06-30T08:36:06.175Z,0.40
2023-06-30T08:38:35.329Z,0.60
2023-06-30T08:41:04.932Z,0.52
2023-06-30T08:43:34.845Z,0.43
2023-06-30T08:46:05.913Z,0.45
2023-06-30T08:48:37.588Z,0.70
2023-06-30T08:51:07.246Z,0.75
2023-06-30T08:53:36.700Z,0.90
2023-06-30T08:56:07.574Z,0.38
2023-06-30T08:58:38.340Z,0.55
2023-06-30T09:01:07.662Z,0.50
2023-06-30T09:03:38.564Z,0.63
2023-06-30T09:06:10.013Z,0.50
2023-06-30T09:08:46.976Z,0.47
2023-06-30T09:11:18.469Z,0.60
2023-06-30T09:13:49.637Z,0.57
2023-06-30T09:16:19.886Z,0.55
2023-06-30T09:18:51.168Z,0.73
2023-06-30T09:21:21.605Z,0.40
2023-06-30T09:23:53.586Z,8.55
2023-06-30T09:26:22.719Z,0.60
2023-06-30T09:28:57.077Z,0.68
2023-06-30T09:31:33.711Z,0.68
2023-06-30T09:34:12.463Z,0.40
2023-06-30T09:36:49.232Z,0.63
2023-06-30T09:39:18.876Z,0.65
2023-06-30T09:41:49.589Z,0.68
2023-06-30T09:44:21.572Z,0.70
2023-06-30T09:46:52.198Z,0.65
2023-06-30T09:49:31.534Z,0.50
2023-06-30T09:52:02.629Z,0.50
2023-06-30T09:54:43.781Z,0.70
2023-06-30T09:57:13.873Z,0.40
2023-06-30T09:59:43.081Z,0.50
2023-06-30T10:02:12.358Z,0.20
2023-06-30T10:04:44.411Z,0.40
2023-06-30T10:07:16.603Z,0.28
2023-06-30T10:09:48.912Z,0.50
2023-06-30T10:12:19.965Z,0.38
2023-06-30T10:14:52.350Z,0.50
2023-06-30T10:17:22.477Z,0.65
2023-06-30T10:19:53.521Z,0.40
2023-06-30T10:22:23.129Z,0.50
2023-06-30T10:24:52.434Z,0.47
2023-06-30T10:27:22.739Z,0.60
2023-06-30T10:29:51.892Z,0.43
2023-06-30T10:32:22.203Z,0.50
2023-06-30T10:34:53.410Z,0.50
2023-06-30T10:37:23.293Z,0.60
2023-06-30T10:39:52.468Z,0.60
2023-06-30T10:42:22.017Z,0.77
2023-06-30T10:44:51.200Z,0.55
2023-06-30T10:47:29.029Z,0.50
2023-06-30T10:50:12.805Z,0.47
2023-06-30T10:52:51.666Z,0.50
2023-06-30T10:55:28.522Z,0.75
2023-06-30T10:57:58.618Z,0.50
2023-06-30T11:00:32.418Z,0.50
2023-06-30T11:03:02.401Z,0.82
2023-06-30T11:05:35.998Z,0.50
2023-06-30T11:08:10.426Z,0.40
2023-06-30T11:10:46.311Z,0.40
2023-06-30T11:13:15.760Z,0.50
2023-06-30T11:15:51.851Z,0.38
2023-06-30T11:18:24.590Z,0.35
2023-06-30T11:21:02.586Z,0.57
2023-06-30T11:23:35.195Z,0.40
2023-06-30T11:26:15.178Z,0.65
2023-06-30T11:28:45.789Z,0.57
2023-06-30T11:31:14.995Z,0.70
2023-06-30T11:33:44.741Z,0.50
2023-06-30T11:36:19.446Z,0.50
2023-06-30T11:38:49.782Z,0.40
2023-06-30T11:41:20.799Z,0.30
2023-06-30T11:43:51.158Z,0.38
2023-06-30T11:46:20.446Z,0.60
2023-06-30T11:48:50.454Z,0.60
2023-06-30T11:51:21.301Z,0.50
2023-06-30T11:53:50.804Z,0.50
2023-06-30T11:56:20.873Z,0.43
2023-06-30T11:58:50.806Z,0.50
2023-06-30T12:01:21.103Z,0.60
2023-06-30T12:03:59.438Z,0.55
2023-06-30T12:06:30.499Z,0.52
2023-06-30T12:08:59.641Z,0.40
2023-06-30T12:11:31.381Z,0.50
2023-06-30T12:14:01.286Z,0.40
2023-06-30T12:16:41.300Z,0.50
2023-06-30T12:19:11.554Z,0.60
2023-06-30T12:21:55.082Z,0.50
2023-06-30T12:24:24.925Z,0.50
2023-06-30T12:26:54.600Z,0.60
2023-06-30T12:29:24.391Z,0.60
2023-06-30T12:31:54.775Z,0.57
2023-06-30T12:34:34.106Z,0.40
2023-06-30T12:37:05.844Z,0.80
2023-06-30T12:39:35.162Z,0.57
2023-06-30T12:42:04.653Z,0.55
2023-06-30T12:44:33.799Z,0.47
2023-06-30T12:47:04.765Z,0.50
2023-06-30T12:49:37.896Z,0.45
2023-06-30T12:52:09.132Z,0.40
2023-06-30T12:54:38.326Z,0.73
2023-06-30T12:57:08.023Z,0.50
2023-06-30T12:59:38.702Z,0.40
2023-06-30T13:02:09.498Z,0.20
2023-06-30T13:04:39.123Z,0.30
2023-06-30T13:07:09.828Z,0.50
2023-06-30T13:09:39.790Z,0.75
2023-06-30T13:12:10.728Z,0.28
2023-06-30T13:14:39.855Z,0.45
2023-06-30T13:17:09.368Z,0.50
2023-06-30T13:19:38.753Z,0.60
2023-06-30T13:22:09.498Z,0.40
2023-06-30T13:24:38.652Z,0.40
2023-06-30T13:27:08.618Z,0.32
2023-06-30T13:29:37.820Z,0.50
2023-06-30T13:32:09.498Z,0.40
2023-06-30T13:34:38.588Z,0.30
2023-06-30T13:37:09.215Z,0.50
2023-06-30T13:39:39.025Z,0.50
2023-06-30T13:42:09.849Z,0.60
2023-06-30T13:44:39.622Z,0.50
2023-06-30T13:47:08.775Z,0.40
2023-06-30T13:49:37.922Z,0.30
2023-06-30T13:52:08.987Z,0.40
2023-06-30T13:54:39.212Z,0.40
2023-06-30T13:57:08.747Z,0.40
2023-06-30T13:59:37.865Z,0.60
2023-06-30T14:02:07.465Z,0.30
2023-06-30T14:04:36.653Z,0.55
2023-06-30T14:07:06.331Z,0.70
2023-06-30T14:09:36.778Z,0.30
2023-06-30T14:12:06.708Z,0.38
2023-06-30T14:14:35.803Z,0.40
2023-06-30T14:17:05.006Z,0.60
2023-06-30T14:19:34.776Z,0.50
2023-06-30T14:22:04.465Z,0.38
2023-06-30T14:24:33.674Z,0.80
2023-06-30T14:27:05.806Z,0.50
2023-06-30T14:29:38.142Z,0.30
2023-06-30T14:32:09.180Z,0.30
2023-06-30T14:34:38.769Z,0.30
2023-06-30T14:37:07.951Z,0.30
2023-06-30T14:39:37.017Z,0.40
2023-06-30T14:42:16.161Z,0.40
2023-06-30T14:44:52.329Z,0.35
2023-06-30T14:47:21.411Z,0.38
2023-06-30T14:49:50.557Z,0.55
2023-06-30T14:52:19.761Z,0.60
2023-06-30T14:54:48.971Z,0.35
2023-06-30T14:57:19.459Z,0.52
2023-06-30T14:59:48.554Z,0.30
2023-06-30T15:02:18.727Z,0.40
2023-06-30T15:04:48.077Z,0.55
2023-06-30T15:07:17.259Z,0.57
2023-06-30T15:09:46.457Z,0.40
2023-06-30T15:12:15.853Z,0.70
2023-06-30T15:14:49.146Z,0.60
2023-06-30T15:17:18.522Z,0.60
2023-06-30T15:19:50.807Z,0.80
2023-06-30T15:22:20.419Z,0.50
2023-06-30T15:24:49.642Z,0.60
2023-06-30T15:27:18.991Z,0.57
2023-06-30T15:29:49.555Z,0.77
2023-06-30T15:32:19.300Z,0.82
2023-06-30T15:34:48.591Z,1.02
2023-06-30T15:37:17.729Z,0.80
2023-06-30T15:39:48.508Z,0.50
2023-06-30T15:42:17.682Z,0.60
2023-06-30T15:44:48.481Z,0.63
2023-06-30T15:47:17.671Z,0.90
2023-06-30T15:49:47.973Z,0.70
2023-06-30T15:52:17.089Z,0.80
2023-06-30T15:54:46.204Z,0.70
2023-06-30T15:57:15.409Z,0.90
2023-06-30T15:59:44.995Z,0.70
2023-06-30T16:02:16.001Z,1.08
2023-06-30T16:04:46.099Z,0.80
2023-06-30T16:07:15.788Z,0.57
2023-06-30T16:09:45.896Z,0.70
2023-06-30T16:12:16.106Z,0.68
2023-06-30T16:14:45.875Z,0.52
2023-06-30T16:17:17.447Z,0.60
2023-06-30T16:19:47.363Z,0.80
2023-06-30T16:22:17.260Z,0.52
2023-06-30T16:24:50.206Z,0.55
2023-06-30T16:27:20.066Z,0.60
2023-06-30T16:29:53.229Z,0.80
2023-06-30T16:32:24.752Z,0.50
2023-06-30T16:34:54.749Z,0.70
2023-06-30T16:37:25.408Z,0.70
2023-06-30T16:39:54.758Z,0.68
2023-06-30T16:42:24.380Z,1.77
2023-06-30T16:44:54.711Z,0.70
2023-06-30T16:47:27.206Z,0.40
2023-06-30T16:49:58.152Z,0.60
2023-06-30T16:52:28.033Z,0.80
2023-06-30T16:54:58.416Z,0.77
2023-06-30T16:57:28.786Z,0.73
2023-06-30T16:59:59.306Z,0.63
2023-06-30T17:02:31.572Z,0.63
2023-06-30T17:05:02.619Z,0.60
2023-06-30T17:07:31.942Z,0.60
2023-06-30T17:10:01.107Z,0.68
2023-06-30T17:12:30.200Z,0.85
2023-06-30T17:14:59.358Z,0.63
2023-06-30T17:17:29.924Z,0.90
2023-06-30T17:20:00.569Z,0.80
2023-06-30T17:22:29.672Z,0.57
2023-06-30T17:25:04.729Z,0.60
2023-06-30T17:27:35.263Z,0.85
2023-06-30T17:30:05.080Z,0.70
2023-06-30T17:32:39.522Z,0.55
2023-06-30T17:35:10.047Z,1.23
2023-06-30T17:37:39.266Z,0.65
2023-06-30T17:40:09.908Z,0.70
2023-06-30T17:42:40.157Z,0.90
2023-06-30T17:45:09.699Z,0.95
2023-06-30T17:47:40.288Z,0.90
2023-06-30T17:50:10.705Z,0.75
2023-06-30T17:52:39.798Z,0.63
2023-06-30T17:55:09.423Z,0.68
2023-06-30T17:57:38.580Z,0.70
2023-06-30T18:00:09.035Z,0.60
2023-06-30T18:02:46.645Z,0.68
2023-06-30T18:05:16.091Z,0.50
2023-06-30T18:07:45.836Z,0.68
2023-06-30T18:10:15.321Z,0.85
2023-06-30T18:12:44.891Z,0.73
2023-06-30T18:15:14.363Z,1.38
2023-06-30T18:17:45.190Z,0.65
2023-06-30T18:20:14.558Z,0.70
2023-06-30T18:22:43.689Z,0.63
2023-06-30T18:25:12.804Z,0.75
2023-06-30T18:27:41.900Z,0.82
2023-06-30T18:30:11.713Z,0.82
2023-06-30T18:32:40.867Z,0.50
2023-06-30T18:35:11.691Z,0.60
2023-06-30T18:37:41.712Z,0.73
2023-06-30T18:40:11.935Z,0.75
2023-06-30T18:42:41.021Z,1.00
2023-06-30T18:45:10.903Z,0.73
2023-06-30T18:47:40.060Z,0.90
2023-06-30T18:50:11.852Z,0.90
2023-06-30T18:52:41.638Z,0.60
2023-06-30T18:55:11.246Z,0.90
2023-06-30T18:57:40.355Z,0.75
2023-06-30T19:00:10.489Z,0.60
2023-06-30T19:02:39.706Z,0.82
2023-06-30T19:05:11.970Z,0.65
2023-06-30T19:07:41.470Z,0.90
2023-06-30T19:10:11.441Z,0.68
2023-06-30T19:12:40.664Z,0.80
2023-06-30T19:15:12.784Z,0.95
2023-06-30T19:17:42.190Z,0.77
2023-06-30T19:20:15.632Z,1.00
2023-06-30T19:22:44.962Z,0.88
2023-06-30T19:25:14.079Z,0.80
2023-06-30T19:27:43.158Z,0.80
2023-06-30T19:30:13.277Z,0.88
2023-06-30T19:32:42.529Z,1.05
2023-06-30T19:35:12.995Z,0.80
2023-06-30T19:37:42.294Z,1.00
2023-06-30T19:40:11.719Z,0.90
2023-06-30T19:42:40.916Z,0.80
2023-06-30T19:45:10.592Z,0.90
2023-06-30T19:47:40.326Z,1.02
2023-06-30T19:50:10.048Z,0.70
2023-06-30T19:52:40.640Z,1.20
2023-06-30T19:55:10.364Z,0.85
2023-06-30T19:57:39.457Z,1.17
2023-06-30T20:00:10.059Z,17.60
2023-06-30T20:02:46.410Z,7.32
2023-06-30T20:05:15.565Z,5.90
2023-06-30T20:07:50.125Z,8.23
2023-06-30T20:10:19.291Z,5.53
2023-06-30T20:12:48.636Z,8.23
2023-06-30T20:15:17.760Z,7.95
2023-06-30T20:17:47.296Z,6.10
2023-06-30T20:20:16.558Z,2.80
2023-06-30T20:22:48.017Z,1.83
2023-06-30T20:25:19.391Z,1.80
2023-06-30T20:27:48.854Z,1.27
2023-06-30T20:30:18.102Z,1.13
2023-06-30T20:32:47.481Z,2.10
2023-06-30T20:35:19.733Z,2.60
2023-06-30T20:37:50.373Z,2.70
2023-06-30T20:40:19.693Z,2.58
2023-06-30T20:42:51.242Z,2.45
2023-06-30T20:45:20.846Z,3.08
2023-06-30T20:47:52.281Z,5.72
2023-06-30T20:50:21.668Z,5.03
2023-06-30T20:52:56.717Z,2.83
2023-06-30T20:55:26.266Z,1.30
2023-06-30T20:57:55.543Z,1.48
2023-06-30T21:00:24.816Z,1.20
2023-06-30T21:02:54.136Z,1.33
2023-06-30T21:05:25.781Z,1.40
2023-06-30T21:07:56.772Z,1.60
2023-06-30T21:10:26.081Z,1.90
2023-06-30T21:13:00.616Z,1.80
2023-06-30T21:15:31.017Z,1.70
2023-06-30T21:18:00.540Z,2.20
2023-06-30T21:20:32.130Z,2.05
2023-06-30T21:23:03.384Z,1.90
2023-06-30T21:25:32.513Z,1.60
2023-06-30T21:28:01.616Z,1.50
2023-06-30T21:30:32.730Z,1.70
2023-06-30T21:33:02.626Z,1.88
2023-06-30T21:35:33.826Z,2.40
2023-06-30T21:38:04.765Z,2.92
2023-06-30T21:40:33.854Z,1.50
2023-06-30T21:43:04.220Z,1.73
2023-06-30T21:45:35.054Z,1.83
2023-06-30T21:48:05.864Z,2.03
2023-06-30T21:50:35.234Z,2.35
2023-06-30T21:53:05.769Z,2.53
2023-06-30T21:55:35.304Z,2.00
2023-06-30T21:58:14.683Z,2.85
2023-06-30T22:00:48.091Z,2.80
2023-06-30T22:03:17.308Z,2.08
2023-06-30T22:05:46.447Z,1.90
2023-06-30T22:08:17.120Z,2.00
2023-06-30T22:10:46.471Z,2.00
2023-06-30T22:13:15.989Z,2.10
2023-06-30T22:15:45.236Z,2.20
2023-06-30T22:18:14.357Z,2.27
2023-06-30T22:20:43.798Z,2.00
2023-06-30T22:23:12.993Z,1.67
2023-06-30T22:25:43.421Z,1.77
2023-06-30T22:28:12.535Z,2.43
2023-06-30T22:30:41.820Z,2.13
2023-06-30T22:33:10.929Z,2.57
2023-06-30T22:35:42.617Z,1.73
2023-06-30T22:38:11.775Z,2.23
2023-06-30T22:40:42.421Z,2.10
2023-06-30T22:43:11.539Z,1.95
2023-06-30T22:45:40.643Z,2.10
2023-06-30T22:48:09.830Z,1.83
2023-06-30T22:50:38.953Z,2.08
2023-06-30T22:53:08.114Z,2.37
2023-06-30T22:55:37.616Z,1.83
2023-06-30T22:58:08.061Z,2.90
2023-06-30T23:00:37.171Z,2.33
2023-06-30T23:03:06.466Z,2.70
2023-06-30T23:05:35.664Z,2.00
2023-06-30T23:08:04.847Z,2.20
2023-06-30T23:10:33.957Z,2.00
2023-06-30T23:13:03.116Z,2.10
2023-06-30T23:15:33.538Z,2.08
2023-06-30T23:18:02.777Z,1.90
2023-06-30T23:20:35.211Z,2.25
2023-06-30T23:23:05.206Z,2.42
2023-06-30T23:25:35.554Z,1.77
2023-06-30T23:28:04.829Z,1.80
2023-06-30T23:30:36.251Z,2.03
2023-06-30T23:33:05.549Z,1.70
2023-06-30T23:35:34.664Z,1.80
2023-06-30T23:38:03.858Z,1.87
2023-06-30T23:40:32.952Z,2.38
2023-06-30T23:43:02.116Z,1.63
2023-06-30T23:45:31.503Z,1.92
2023-06-30T23:48:02.061Z,2.10
2023-06-30T23:50:31.182Z,1.95
2023-06-30T23:53:00.246Z,2.10
2023-06-30T23:55:29.345Z,2.40
2023-06-30T23:57:58.513Z,2.30
